YPKG/KGI METAR and TAF weather

Enter ICAO airport designator
Station Type Date Time Source
YPKG METAR 2021/04/14 21:00 UTC NOAA

YPKG 142100Z AUTO 15002KT 9999 // NCD 09/04 Q1025 RF00.0/000.0


Station Type Date Time Source
YPKG Decoded METAR 2021/04/14 21:00 UTC NOAA

Kalgoorlie Boulder Amo, Australia (YPKG) 30-47S 121-27E 370M
Apr 14, 2021 - 05:00 PM EDT / 2021.04.14 2100 UTC
Wind: from the SSE (150 degrees) at 2 MPH (2 KT):0
Visibility: greater than 7 mile(s):0
Temperature: 48 F (9 C)
Dew Point: 39 F (4 C)
Relative Humidity: 70%
Pressure (altimeter): 30.27 in. Hg (1025 hPa)
ob: YPKG 142100Z AUTO 15002KT 9999 // NCD 09/04 Q1025 RF00.0/000.0
cycle: 21

Station Type Date Time Source
YPKG TAF 2021/04/14 18:00 UTC NOAA

TAF YPKG 141702Z 1418/1518 15007KT CAVOK

Example: see airport list